createdAt,value
2022-10-06T00:01:05.580Z,99.39
2022-10-06T00:03:45.603Z,99.64
2022-10-06T00:06:15.826Z,99.87
2022-10-06T00:08:44.916Z,100.00
2022-10-06T00:11:13.888Z,100.00
2022-10-06T00:13:42.509Z,100.00
2022-10-06T00:16:12.827Z,100.00
2022-10-06T00:18:40.691Z,100.00
2022-10-06T00:21:08.313Z,100.00
2022-10-06T00:23:36.562Z,100.00
2022-10-06T00:26:04.392Z,100.00
2022-10-06T00:28:32.830Z,100.00
2022-10-06T00:31:02.985Z,100.00
2022-10-06T00:33:30.867Z,100.00
2022-10-06T00:36:00.864Z,100.00
2022-10-06T00:38:29.922Z,100.00
2022-10-06T00:40:58.089Z,100.00
2022-10-06T00:43:49.875Z,100.00
2022-10-06T00:46:24.360Z,100.00
2022-10-06T00:49:00.448Z,100.00
2022-10-06T00:51:29.770Z,100.00
2022-10-06T00:53:58.088Z,100.00
2022-10-06T00:56:26.737Z,100.00
2022-10-06T00:58:55.029Z,100.00
2022-10-06T01:01:23.083Z,100.00
2022-10-06T01:04:00.100Z,100.00
2022-10-06T01:06:28.766Z,100.00
2022-10-06T01:08:56.618Z,100.00
2022-10-06T01:11:24.470Z,100.00
2022-10-06T01:13:52.458Z,100.00
2022-10-06T01:16:25.141Z,100.00
2022-10-06T01:18:55.614Z,100.00
2022-10-06T01:21:38.684Z,100.00
2022-10-06T01:24:10.253Z,100.00
2022-10-06T01:26:42.486Z,100.00
2022-10-06T01:29:10.949Z,100.00
2022-10-06T01:31:39.995Z,100.00
2022-10-06T01:34:07.839Z,100.00
2022-10-06T01:36:35.776Z,100.00
2022-10-06T01:39:03.603Z,100.00
2022-10-06T01:41:33.359Z,100.00
2022-10-06T01:44:02.661Z,100.00
2022-10-06T01:46:31.297Z,100.00
2022-10-06T01:49:00.032Z,100.00
2022-10-06T01:51:27.970Z,100.00
2022-10-06T01:53:55.735Z,100.00
2022-10-06T01:56:23.944Z,100.00
2022-10-06T01:58:51.984Z,100.00
2022-10-06T02:01:19.818Z,100.00
2022-10-06T02:03:47.509Z,100.00
2022-10-06T02:06:15.578Z,100.00
2022-10-06T02:08:45.041Z,100.00
2022-10-06T02:11:13.309Z,100.00
2022-10-06T02:13:45.115Z,100.00
2022-10-06T02:16:14.183Z,100.00
2022-10-06T02:18:43.549Z,100.00
2022-10-06T02:21:22.075Z,100.00
2022-10-06T02:23:50.743Z,100.00
2022-10-06T02:26:19.151Z,100.00
2022-10-06T02:28:50.061Z,100.00
2022-10-06T02:31:22.216Z,100.00
2022-10-06T02:33:50.034Z,100.00
2022-10-06T02:36:19.330Z,100.00
2022-10-06T02:38:47.287Z,100.00
2022-10-06T02:41:15.088Z,100.00
2022-10-06T02:43:43.032Z,100.00
2022-10-06T02:46:14.689Z,100.00
2022-10-06T02:48:48.481Z,100.00
2022-10-06T02:51:19.328Z,100.00
2022-10-06T02:53:48.600Z,100.00
2022-10-06T02:56:24.158Z,100.00
2022-10-06T02:58:53.683Z,100.00
2022-10-06T03:01:30.813Z,100.00
2022-10-06T03:04:01.959Z,100.00
2022-10-06T03:06:31.679Z,100.00
2022-10-06T03:09:13.783Z,100.00
2022-10-06T03:11:44.303Z,100.00
2022-10-06T03:14:25.885Z,100.00
2022-10-06T03:16:55.050Z,100.00
2022-10-06T03:19:28.416Z,100.00
2022-10-06T03:21:56.647Z,100.00
2022-10-06T03:24:33.068Z,100.00
2022-10-06T03:27:00.972Z,100.00
2022-10-06T03:29:31.107Z,100.00
2022-10-06T03:31:59.722Z,100.00
2022-10-06T03:34:27.581Z,100.00
2022-10-06T03:36:57.173Z,100.00
2022-10-06T03:39:27.301Z,100.00
2022-10-06T03:41:55.174Z,100.00
2022-10-06T03:44:22.995Z,100.00
2022-10-06T03:46:51.336Z,100.00
2022-10-06T03:49:20.169Z,100.00
2022-10-06T03:51:48.445Z,100.00
2022-10-06T03:54:21.549Z,100.00
2022-10-06T03:56:51.461Z,100.00
2022-10-06T03:59:20.489Z,100.00
2022-10-06T04:01:49.701Z,100.00
2022-10-06T04:04:25.427Z,100.00
2022-10-06T04:06:59.625Z,100.00
2022-10-06T04:09:27.576Z,100.00
2022-10-06T04:11:55.446Z,100.00
2022-10-06T04:14:23.410Z,100.00
2022-10-06T04:16:52.053Z,100.00
2022-10-06T04:19:25.413Z,100.00
2022-10-06T04:21:56.132Z,100.00
2022-10-06T04:24:25.993Z,100.00
2022-10-06T04:27:14.019Z,100.00
2022-10-06T04:29:42.829Z,100.00
2022-10-06T04:32:11.462Z,100.00
2022-10-06T04:34:39.441Z,100.00
2022-10-06T04:37:07.500Z,100.00
2022-10-06T04:39:35.471Z,100.00
2022-10-06T04:42:03.338Z,100.00
2022-10-06T04:44:32.328Z,100.00
2022-10-06T04:47:02.773Z,100.00
2022-10-06T04:49:31.748Z,100.00
2022-10-06T04:51:59.918Z,100.00
2022-10-06T04:54:33.906Z,100.00
2022-10-06T04:57:04.008Z,100.00
2022-10-06T04:59:51.138Z,100.00
2022-10-06T05:02:20.701Z,100.00
2022-10-06T05:04:51.934Z,100.00
2022-10-06T05:07:21.813Z,100.00
2022-10-06T05:09:49.612Z,100.00
2022-10-06T05:12:19.295Z,100.00
2022-10-06T05:14:48.025Z,100.00
2022-10-06T05:17:16.644Z,100.00
2022-10-06T05:19:45.444Z,100.00
2022-10-06T05:22:13.321Z,100.00
2022-10-06T05:24:41.545Z,100.00
2022-10-06T05:27:09.315Z,100.00
2022-10-06T05:29:37.015Z,100.00
2022-10-06T05:32:07.159Z,100.00
2022-10-06T05:34:36.545Z,100.00
2022-10-06T05:37:04.412Z,100.00
2022-10-06T05:39:32.653Z,100.00
2022-10-06T05:42:01.382Z,100.00
2022-10-06T05:44:30.040Z,100.00
2022-10-06T05:47:01.469Z,100.00
2022-10-06T05:49:29.907Z,100.00
2022-10-06T05:52:02.161Z,100.00
2022-10-06T05:54:32.998Z,100.00
2022-10-06T05:57:01.380Z,100.00
2022-10-06T05:59:31.603Z,100.00
2022-10-06T06:02:00.913Z,100.00
2022-10-06T06:04:42.579Z,100.00
2022-10-06T06:07:10.954Z,100.00
2022-10-06T06:09:40.724Z,100.00
2022-10-06T06:12:08.783Z,97.05
2022-10-06T06:15:15.230Z,87.68
2022-10-06T06:17:48.817Z,79.76
2022-10-06T06:20:16.636Z,77.50
2022-10-06T06:22:44.482Z,77.15
2022-10-06T06:25:13.056Z,76.21
2022-10-06T06:27:42.496Z,74.17
2022-10-06T06:30:11.274Z,71.91
2022-10-06T06:32:41.763Z,65.64
2022-10-06T06:35:10.443Z,62.40
2022-10-06T06:37:38.717Z,62.34
2022-10-06T06:40:07.295Z,63.60
2022-10-06T06:42:38.507Z,64.50
2022-10-06T06:45:25.093Z,65.29
2022-10-06T06:48:16.983Z,67.52
2022-10-06T06:50:59.124Z,68.27
2022-10-06T06:53:29.999Z,69.02
2022-10-06T06:56:02.516Z,69.58
2022-10-06T06:58:33.028Z,69.61
2022-10-06T07:01:08.736Z,69.32
2022-10-06T07:03:56.598Z,69.41
2022-10-06T07:06:28.168Z,70.04
2022-10-06T07:08:59.658Z,70.56
2022-10-06T07:11:30.901Z,71.11
2022-10-06T07:14:05.399Z,71.34
2022-10-06T07:16:52.772Z,71.83
2022-10-06T07:19:57.641Z,72.05
2022-10-06T07:22:46.738Z,71.89
2022-10-06T07:25:26.895Z,72.42
2022-10-06T07:28:07.738Z,72.81
2022-10-06T07:30:40.886Z,72.24
2022-10-06T07:33:18.932Z,71.87
2022-10-06T07:35:48.451Z,71.02
2022-10-06T07:38:18.715Z,70.82
2022-10-06T07:43:49.955Z,71.09
2022-10-06T07:46:19.494Z,70.23
2022-10-06T07:49:08.435Z,69.81
2022-10-06T07:51:36.895Z,69.79
2022-10-06T07:54:04.776Z,69.72
2022-10-06T07:56:53.704Z,69.24
2022-10-06T07:59:21.935Z,69.41
2022-10-06T08:01:51.351Z,69.25
2022-10-06T08:04:19.478Z,70.03
2022-10-06T08:06:49.475Z,70.16
2022-10-06T08:09:17.191Z,70.72
2022-10-06T08:11:47.330Z,70.86
2022-10-06T08:14:15.206Z,70.90
2022-10-06T08:16:42.980Z,70.65
2022-10-06T08:19:11.796Z,70.63
2022-10-06T08:21:39.905Z,70.75
2022-10-06T08:24:07.753Z,70.43
2022-10-06T08:26:35.977Z,70.03
2022-10-06T08:29:04.838Z,69.21
2022-10-06T08:31:33.287Z,68.89
2022-10-06T08:34:01.635Z,68.27
2022-10-06T08:36:32.302Z,66.95
2022-10-06T08:39:01.176Z,66.44
2022-10-06T08:41:32.968Z,62.36
2022-10-06T08:44:32.667Z,53.91
2022-10-06T08:47:13.749Z,49.45
2022-10-06T08:49:44.580Z,44.60
2022-10-06T08:52:18.130Z,42.51
2022-10-06T08:55:25.612Z,40.26
2022-10-06T08:58:19.916Z,37.85
2022-10-06T09:00:47.758Z,35.97
2022-10-06T09:03:27.620Z,35.87
2022-10-06T09:06:18.268Z,35.10
2022-10-06T09:08:53.711Z,35.01
2022-10-06T09:11:31.821Z,35.40
2022-10-06T09:14:34.802Z,35.16
2022-10-06T09:17:10.719Z,33.90
2022-10-06T09:19:48.375Z,34.56
2022-10-06T09:22:21.652Z,35.12
2022-10-06T09:24:57.070Z,37.20
2022-10-06T09:27:33.240Z,38.95
2022-10-06T09:30:06.295Z,40.24
2022-10-06T09:32:36.227Z,41.64
2022-10-06T09:35:18.889Z,43.55
2022-10-06T09:37:58.441Z,45.09
2022-10-06T09:40:38.216Z,46.50
2022-10-06T09:43:23.078Z,47.13
2022-10-06T09:45:51.640Z,47.79
2022-10-06T09:48:24.978Z,48.19
2022-10-06T09:51:23.750Z,48.08
2022-10-06T09:54:20.820Z,47.36
2022-10-06T09:56:49.406Z,46.88
2022-10-06T09:59:22.480Z,45.32
2022-10-06T10:01:58.122Z,43.33
2022-10-06T10:04:31.498Z,43.21
2022-10-06T10:07:24.527Z,42.47
2022-10-06T10:10:31.376Z,42.77
2022-10-06T10:13:00.356Z,43.76
2022-10-06T10:15:56.995Z,44.61
2022-10-06T10:18:28.832Z,45.71
2022-10-06T10:20:58.443Z,46.55
2022-10-06T10:23:33.422Z,47.33
2022-10-06T10:26:27.079Z,47.80
2022-10-06T10:29:16.520Z,48.17
2022-10-06T10:32:09.846Z,48.54
2022-10-06T10:34:50.249Z,48.68
2022-10-06T10:37:24.369Z,48.77
2022-10-06T10:39:59.219Z,49.48
2022-10-06T10:42:39.760Z,50.18
2022-10-06T10:45:17.723Z,51.27
2022-10-06T10:47:48.510Z,52.14
2022-10-06T10:50:27.925Z,52.45
2022-10-06T10:53:07.364Z,52.95
2022-10-06T10:55:48.000Z,53.34
2022-10-06T10:58:37.473Z,53.94
2022-10-06T11:01:27.959Z,54.39
2022-10-06T11:03:57.001Z,54.69
2022-10-06T11:06:55.123Z,55.42
2022-10-06T11:09:51.171Z,56.85
2022-10-06T11:12:23.963Z,57.67
2022-10-06T11:15:03.547Z,58.66
2022-10-06T11:17:44.232Z,59.25
2022-10-06T11:20:23.985Z,60.32
2022-10-06T11:22:58.852Z,61.18
2022-10-06T11:25:56.695Z,61.21
2022-10-06T11:28:32.153Z,61.59
2022-10-06T11:31:06.212Z,61.17
2022-10-06T11:33:42.959Z,61.11
2022-10-06T11:36:21.657Z,61.01
2022-10-06T11:38:58.452Z,60.97
2022-10-06T11:41:39.425Z,60.27
2022-10-06T11:44:39.489Z,59.88
2022-10-06T11:47:28.176Z,59.31
2022-10-06T11:50:02.745Z,58.89
2022-10-06T11:52:30.443Z,58.86
2022-10-06T11:55:20.778Z,58.99
2022-10-06T11:58:29.833Z,58.86
2022-10-06T12:00:55.897Z,58.22
2022-10-06T12:03:31.181Z,57.91
2022-10-06T12:05:59.009Z,57.35
2022-10-06T12:08:37.064Z,57.14
2022-10-06T12:11:25.006Z,57.27
2022-10-06T12:19:42.231Z,58.03
2022-10-06T12:22:26.157Z,57.92
2022-10-06T12:25:37.574Z,55.77
2022-10-06T12:28:32.689Z,54.41
2022-10-06T12:31:21.934Z,54.06
2022-10-06T12:33:50.551Z,53.86
2022-10-06T12:36:28.827Z,52.93
2022-10-06T12:39:05.195Z,51.97
2022-10-06T12:42:01.656Z,51.29
2022-10-06T12:44:40.542Z,51.41
2022-10-06T12:47:34.853Z,51.60
2022-10-06T12:50:25.542Z,52.04
2022-10-06T12:53:05.852Z,52.60
2022-10-06T12:55:51.604Z,52.42
2022-10-06T12:58:20.990Z,53.25
2022-10-06T13:00:49.307Z,53.60
2022-10-06T13:03:24.331Z,53.39
2022-10-06T13:05:56.523Z,54.13
2022-10-06T13:08:30.033Z,54.08
2022-10-06T13:11:16.115Z,54.74
2022-10-06T13:13:48.270Z,55.21
2022-10-06T13:16:21.800Z,55.55
2022-10-06T13:18:54.276Z,56.07
2022-10-06T13:21:23.207Z,56.93
2022-10-06T13:23:52.333Z,57.07
2022-10-06T13:26:30.256Z,57.44
2022-10-06T13:28:59.564Z,57.85
2022-10-06T13:31:32.452Z,58.14
2022-10-06T13:34:00.429Z,58.41
2022-10-06T13:36:30.128Z,58.01
2022-10-06T13:38:58.395Z,57.56
2022-10-06T13:41:34.757Z,57.54
2022-10-06T13:44:06.071Z,56.92
2022-10-06T13:46:42.447Z,56.04
2022-10-06T13:49:26.302Z,56.08
2022-10-06T13:51:56.930Z,56.45
2022-10-06T13:54:33.028Z,55.65
2022-10-06T13:57:01.121Z,55.68
2022-10-06T13:59:37.265Z,55.35
2022-10-06T14:02:24.364Z,55.24
2022-10-06T14:05:26.519Z,55.36
2022-10-06T14:08:24.436Z,53.54
2022-10-06T14:10:57.383Z,53.19
2022-10-06T14:13:41.513Z,53.71
2022-10-06T14:16:18.349Z,54.11
2022-10-06T14:21:41.974Z,54.97
2022-10-06T14:24:15.948Z,55.85
2022-10-06T14:26:50.864Z,56.03
2022-10-06T14:29:20.181Z,56.69
2022-10-06T14:31:48.516Z,57.09
2022-10-06T14:34:18.596Z,57.17
2022-10-06T14:36:51.471Z,57.35
2022-10-06T14:39:20.252Z,57.62
2022-10-06T14:41:48.394Z,58.11
2022-10-06T14:44:16.375Z,57.86
2022-10-06T14:46:47.720Z,57.87
2022-10-06T14:49:16.430Z,57.79
2022-10-06T14:51:45.191Z,58.03
2022-10-06T14:54:13.703Z,57.93
2022-10-06T14:56:42.459Z,58.17
2022-10-06T14:59:16.742Z,57.77
2022-10-06T15:01:45.984Z,57.94
2022-10-06T15:04:20.020Z,57.59
2022-10-06T15:07:07.314Z,57.65
2022-10-06T15:09:35.790Z,58.10
2022-10-06T15:12:04.592Z,58.37
2022-10-06T15:14:35.003Z,57.30
2022-10-06T15:17:03.461Z,56.79
2022-10-06T15:19:31.415Z,55.98
2022-10-06T15:21:59.118Z,55.76
2022-10-06T15:24:27.117Z,56.05
2022-10-06T15:27:13.955Z,55.89
2022-10-06T15:29:42.408Z,55.91
2022-10-06T15:32:10.307Z,55.80
2022-10-06T15:34:38.161Z,55.83
2022-10-06T15:37:06.986Z,55.87
2022-10-06T15:39:38.504Z,56.14
2022-10-06T15:42:08.023Z,56.60
2022-10-06T15:44:36.393Z,57.21
2022-10-06T15:47:07.895Z,57.91
2022-10-06T15:49:40.562Z,58.22
2022-10-06T15:52:11.394Z,58.41
2022-10-06T15:54:41.291Z,58.61
2022-10-06T15:57:15.038Z,59.07
2022-10-06T15:59:45.883Z,59.41
2022-10-06T16:02:16.860Z,59.74
2022-10-06T16:05:09.288Z,60.00
2022-10-06T16:07:37.263Z,60.52
2022-10-06T16:10:05.322Z,60.81
2022-10-06T16:12:33.457Z,61.23
2022-10-06T16:15:01.471Z,61.38
2022-10-06T16:17:29.491Z,61.51
2022-10-06T16:19:57.148Z,61.56
2022-10-06T16:22:25.037Z,61.90
2022-10-06T16:24:53.484Z,62.19
2022-10-06T16:27:21.208Z,62.22
2022-10-06T16:29:49.056Z,62.15
2022-10-06T16:32:17.304Z,62.18
2022-10-06T16:34:50.357Z,62.40
2022-10-06T16:37:18.408Z,62.67
2022-10-06T16:39:46.159Z,62.74
2022-10-06T16:42:13.866Z,62.78
2022-10-06T16:44:41.798Z,62.89
2022-10-06T16:47:09.684Z,63.19
2022-10-06T16:49:37.411Z,63.51
2022-10-06T16:52:05.407Z,63.64
2022-10-06T16:54:33.067Z,64.01
2022-10-06T16:57:06.585Z,64.28
2022-10-06T16:59:34.506Z,64.12
2022-10-06T17:02:02.251Z,64.18
2022-10-06T17:04:30.144Z,64.79
2022-10-06T17:06:58.397Z,64.82
2022-10-06T17:09:28.747Z,64.87
2022-10-06T17:12:02.617Z,64.70
2022-10-06T17:14:32.276Z,64.52
2022-10-06T17:17:01.595Z,64.55
2022-10-06T17:19:30.451Z,64.96
2022-10-06T17:21:59.866Z,65.09
2022-10-06T17:24:29.605Z,65.42
2022-10-06T17:26:59.136Z,65.33
2022-10-06T17:29:27.253Z,65.80
2022-10-06T17:32:00.156Z,66.45
2022-10-06T17:34:33.412Z,67.25
2022-10-06T17:37:02.736Z,67.64
2022-10-06T17:39:31.132Z,68.16
2022-10-06T17:41:59.270Z,68.56
2022-10-06T17:44:28.605Z,69.29
2022-10-06T17:46:58.836Z,70.78
2022-10-06T17:49:28.657Z,71.69
2022-10-06T17:51:56.736Z,72.96
2022-10-06T17:54:26.897Z,73.37
2022-10-06T17:56:57.174Z,73.91
2022-10-06T17:59:31.648Z,74.46
2022-10-06T18:02:02.598Z,75.18
2022-10-06T18:04:32.152Z,76.11
2022-10-06T18:07:00.433Z,76.83
2022-10-06T18:09:28.369Z,77.59
2022-10-06T18:11:57.693Z,78.33
2022-10-06T18:14:28.005Z,78.76
2022-10-06T18:16:58.601Z,79.73
2022-10-06T18:19:34.374Z,80.65
2022-10-06T18:22:08.007Z,81.54
2022-10-06T18:24:35.770Z,82.24
2022-10-06T18:27:05.909Z,82.76
2022-10-06T18:29:35.781Z,83.37
2022-10-06T18:32:58.981Z,83.73
2022-10-06T18:37:41.455Z,84.80
2022-10-06T18:40:11.257Z,85.19
2022-10-06T18:42:39.548Z,85.97
2022-10-06T18:45:26.932Z,86.42
2022-10-06T18:48:13.379Z,87.08
2022-10-06T18:50:41.493Z,87.69
2022-10-06T18:53:09.430Z,88.23
2022-10-06T18:55:37.087Z,88.59
2022-10-06T18:58:05.257Z,88.81
2022-10-06T19:00:33.441Z,89.41
2022-10-06T19:03:01.160Z,89.53
2022-10-06T19:05:29.000Z,89.82
2022-10-06T19:07:57.093Z,90.17
2022-10-06T19:10:24.764Z,90.83
2022-10-06T19:12:52.514Z,91.08
2022-10-06T19:15:21.475Z,91.37
2022-10-06T19:17:50.327Z,91.89
2022-10-06T19:20:18.708Z,92.26
2022-10-06T19:22:47.850Z,92.58
2022-10-06T19:25:19.208Z,92.92
2022-10-06T19:27:51.128Z,93.40
2022-10-06T19:30:19.232Z,93.67
2022-10-06T19:32:48.668Z,93.93
2022-10-06T19:35:19.369Z,94.13
2022-10-06T19:37:47.362Z,94.83
2022-10-06T19:40:15.140Z,95.00
2022-10-06T19:42:49.447Z,95.50
2022-10-06T19:45:19.644Z,95.72
2022-10-06T19:47:48.006Z,96.04
2022-10-06T19:50:17.294Z,96.48
2022-10-06T19:52:45.619Z,96.80
2022-10-06T19:55:13.474Z,97.19
2022-10-06T19:57:41.669Z,97.23
2022-10-06T20:00:10.704Z,97.41
2022-10-06T20:02:43.914Z,97.81
2022-10-06T20:05:16.992Z,98.13
2022-10-06T20:07:46.943Z,98.33
2022-10-06T20:10:15.663Z,98.41
2022-10-06T20:12:43.550Z,98.55
2022-10-06T20:15:12.752Z,98.87
2022-10-06T20:17:42.438Z,99.20
2022-10-06T20:20:10.828Z,99.35
2022-10-06T20:22:38.587Z,99.16
2022-10-06T20:25:07.175Z,99.60
2022-10-06T20:27:35.104Z,99.49
2022-10-06T20:30:03.841Z,99.78
2022-10-06T20:32:31.716Z,99.93
2022-10-06T20:34:59.414Z,99.92
2022-10-06T20:37:27.456Z,100.00
2022-10-06T20:40:14.111Z,99.98
2022-10-06T20:42:44.827Z,100.00
2022-10-06T20:45:12.970Z,100.00
2022-10-06T20:47:41.069Z,100.00
2022-10-06T20:50:09.689Z,100.00
2022-10-06T20:52:38.760Z,100.00
2022-10-06T20:55:07.570Z,100.00
2022-10-06T20:57:35.511Z,100.00
2022-10-06T21:00:03.358Z,100.00
2022-10-06T21:02:32.153Z,100.00
2022-10-06T21:05:01.578Z,100.00
2022-10-06T21:07:29.424Z,100.00
2022-10-06T21:09:57.476Z,100.00
2022-10-06T21:12:25.313Z,100.00
2022-10-06T21:14:53.111Z,100.00
2022-10-06T21:17:21.030Z,100.00
2022-10-06T21:19:48.949Z,100.00
2022-10-06T21:22:17.428Z,100.00
2022-10-06T21:24:45.465Z,100.00
2022-10-06T21:27:13.270Z,100.00
2022-10-06T21:29:41.037Z,100.00
2022-10-06T21:32:10.086Z,100.00
2022-10-06T21:34:40.308Z,100.00
2022-10-06T21:37:08.224Z,100.00
2022-10-06T21:39:36.147Z,100.00
2022-10-06T21:42:04.265Z,100.00
2022-10-06T21:44:32.075Z,100.00
2022-10-06T21:47:02.747Z,100.00
2022-10-06T21:49:30.689Z,100.00
2022-10-06T21:52:03.615Z,100.00
2022-10-06T21:54:31.889Z,100.00
2022-10-06T21:56:59.910Z,100.00
2022-10-06T21:59:27.682Z,100.00
2022-10-06T22:01:56.811Z,100.00
2022-10-06T22:04:24.732Z,100.00
2022-10-06T22:06:52.735Z,100.00
2022-10-06T22:09:21.456Z,100.00
2022-10-06T22:11:49.805Z,100.00
2022-10-06T22:14:19.093Z,100.00
2022-10-06T22:16:48.252Z,100.00
2022-10-06T22:19:18.055Z,100.00
2022-10-06T22:21:48.607Z,100.00
2022-10-06T22:24:19.540Z,100.00
2022-10-06T22:26:48.617Z,100.00
2022-10-06T22:29:17.945Z,100.00
2022-10-06T22:31:47.853Z,100.00
2022-10-06T22:34:18.569Z,100.00
2022-10-06T22:36:46.800Z,100.00
2022-10-06T22:39:14.670Z,100.00
2022-10-06T22:41:42.601Z,100.00
2022-10-06T22:44:10.605Z,100.00
2022-10-06T22:46:38.990Z,100.00
2022-10-06T22:49:07.226Z,100.00
2022-10-06T22:51:35.795Z,100.00
2022-10-06T22:54:04.165Z,100.00
2022-10-06T22:56:33.895Z,100.00
2022-10-06T22:59:02.070Z,100.00
2022-10-06T23:01:30.410Z,100.00
2022-10-06T23:03:59.534Z,100.00
2022-10-06T23:06:31.182Z,100.00
2022-10-06T23:08:59.881Z,100.00
2022-10-06T23:11:28.252Z,100.00
2022-10-06T23:13:56.290Z,100.00
2022-10-06T23:16:24.165Z,100.00
2022-10-06T23:18:52.278Z,100.00
2022-10-06T23:21:24.075Z,100.00
2022-10-06T23:23:54.620Z,100.00
2022-10-06T23:26:24.177Z,100.00
2022-10-06T23:28:58.298Z,100.00
2022-10-06T23:31:27.728Z,100.00
2022-10-06T23:33:56.293Z,100.00
2022-10-06T23:36:24.293Z,100.00
2022-10-06T23:38:52.578Z,100.00
2022-10-06T23:41:20.575Z,100.00
2022-10-06T23:43:48.695Z,100.00
2022-10-06T23:46:17.028Z,100.00
2022-10-06T23:48:44.904Z,100.00
2022-10-06T23:51:15.472Z,100.00
2022-10-06T23:53:44.444Z,100.00
2022-10-06T23:56:12.974Z,100.00
2022-10-06T23:58:42.585Z,100.00
